sensor_id;sensor_type;location;lat;lon;timestamp;P1;durP1;ratioP1;P2;durP2;ratioP2
39982;SDS011;25670;44.782;10.356;2022-07-05T00:00:11;3.10;;;0.55;;
39982;SDS011;25670;44.782;10.356;2022-07-05T00:02:38;2.70;;;0.82;;
39982;SDS011;25670;44.782;10.356;2022-07-05T00:05:05;2.15;;;0.70;;
39982;SDS011;25670;44.782;10.356;2022-07-05T00:07:31;1.55;;;1.02;;
39982;SDS011;25670;44.782;10.356;2022-07-05T00:09:58;2.00;;;0.75;;
39982;SDS011;25670;44.782;10.356;2022-07-05T00:12:26;2.28;;;1.42;;
39982;SDS011;25670;44.782;10.356;2022-07-05T00:14:55;2.50;;;0.80;;
39982;SDS011;25670;44.782;10.356;2022-07-05T00:17:22;2.75;;;1.60;;
39982;SDS011;25670;44.782;10.356;2022-07-05T00:19:48;4.43;;;1.45;;
39982;SDS011;25670;44.782;10.356;2022-07-05T00:22:15;4.22;;;1.05;;
39982;SDS011;25670;44.782;10.356;2022-07-05T00:24:41;4.85;;;1.10;;
39982;SDS011;25670;44.782;10.356;2022-07-05T00:27:08;7.90;;;1.63;;
39982;SDS011;25670;44.782;10.356;2022-07-05T00:29:35;2.92;;;1.20;;
39982;SDS011;25670;44.782;10.356;2022-07-05T00:32:01;2.75;;;1.20;;
39982;SDS011;25670;44.782;10.356;2022-07-05T00:34:27;5.13;;;1.30;;
39982;SDS011;25670;44.782;10.356;2022-07-05T00:36:54;11.98;;;2.20;;
39982;SDS011;25670;44.782;10.356;2022-07-05T00:39:20;6.38;;;1.30;;
39982;SDS011;25670;44.782;10.356;2022-07-05T00:41:46;3.88;;;1.45;;
39982;SDS011;25670;44.782;10.356;2022-07-05T00:44:13;5.75;;;2.05;;
39982;SDS011;25670;44.782;10.356;2022-07-05T00:46:41;5.40;;;2.30;;
39982;SDS011;25670;44.782;10.356;2022-07-05T00:49:09;5.07;;;1.92;;
39982;SDS011;25670;44.782;10.356;2022-07-05T00:51:36;5.65;;;2.60;;
39982;SDS011;25670;44.782;10.356;2022-07-05T00:54:05;5.45;;;3.33;;
39982;SDS011;25670;44.782;10.356;2022-07-05T00:56:32;5.97;;;3.55;;
39982;SDS011;25670;44.782;10.356;2022-07-05T00:58:59;12.70;;;5.28;;
39982;SDS011;25670;44.782;10.356;2022-07-05T01:01:26;6.40;;;4.40;;
39982;SDS011;25670;44.782;10.356;2022-07-05T01:03:52;7.50;;;4.82;;
39982;SDS011;25670;44.782;10.356;2022-07-05T01:06:19;10.30;;;5.07;;
39982;SDS011;25670;44.782;10.356;2022-07-05T01:08:46;5.70;;;5.20;;
39982;SDS011;25670;44.782;10.356;2022-07-05T01:11:13;7.13;;;6.28;;
39982;SDS011;25670;44.782;10.356;2022-07-05T01:13:40;7.47;;;5.65;;
39982;SDS011;25670;44.782;10.356;2022-07-05T01:16:07;8.95;;;5.32;;
39982;SDS011;25670;44.782;10.356;2022-07-05T01:18:36;11.95;;;5.82;;
39982;SDS011;25670;44.782;10.356;2022-07-05T01:21:02;10.60;;;7.07;;
39982;SDS011;25670;44.782;10.356;2022-07-05T01:23:29;12.00;;;6.13;;
39982;SDS011;25670;44.782;10.356;2022-07-05T01:25:57;6.22;;;5.40;;
39982;SDS011;25670;44.782;10.356;2022-07-05T01:28:25;10.57;;;5.57;;
39982;SDS011;25670;44.782;10.356;2022-07-05T01:30:52;6.18;;;5.63;;
39982;SDS011;25670;44.782;10.356;2022-07-05T01:33:18;9.82;;;5.82;;
39982;SDS011;25670;44.782;10.356;2022-07-05T01:35:44;12.27;;;5.60;;
39982;SDS011;25670;44.782;10.356;2022-07-05T01:38:11;10.73;;;5.22;;
39982;SDS011;25670;44.782;10.356;2022-07-05T01:40:38;9.35;;;5.30;;
39982;SDS011;25670;44.782;10.356;2022-07-05T01:43:04;5.00;;;4.50;;
39982;SDS011;25670;44.782;10.356;2022-07-05T01:45:30;9.60;;;4.50;;
39982;SDS011;25670;44.782;10.356;2022-07-05T01:48:08;5.50;;;4.25;;
39982;SDS011;25670;44.782;10.356;2022-07-05T01:50:49;5.18;;;4.75;;
39982;SDS011;25670;44.782;10.356;2022-07-05T01:53:19;8.57;;;4.88;;
39982;SDS011;25670;44.782;10.356;2022-07-05T01:55:56;5.43;;;4.05;;
39982;SDS011;25670;44.782;10.356;2022-07-05T01:58:25;6.00;;;4.82;;
39982;SDS011;25670;44.782;10.356;2022-07-05T02:00:52;7.05;;;4.78;;
39982;SDS011;25670;44.782;10.356;2022-07-05T02:03:20;5.03;;;4.60;;
39982;SDS011;25670;44.782;10.356;2022-07-05T02:05:47;9.15;;;4.78;;
39982;SDS011;25670;44.782;10.356;2022-07-05T02:08:18;11.23;;;4.55;;
39982;SDS011;25670;44.782;10.356;2022-07-05T02:10:45;11.13;;;5.40;;
39982;SDS011;25670;44.782;10.356;2022-07-05T02:13:12;4.95;;;4.55;;
39982;SDS011;25670;44.782;10.356;2022-07-05T02:15:40;5.00;;;4.55;;
39982;SDS011;25670;44.782;10.356;2022-07-05T02:18:08;6.57;;;4.82;;
39982;SDS011;25670;44.782;10.356;2022-07-05T02:20:39;6.65;;;5.13;;
39982;SDS011;25670;44.782;10.356;2022-07-05T02:23:06;5.82;;;4.43;;
39982;SDS011;25670;44.782;10.356;2022-07-05T02:25:34;13.13;;;4.60;;
39982;SDS011;25670;44.782;10.356;2022-07-05T02:28:05;10.32;;;5.72;;
39982;SDS011;25670;44.782;10.356;2022-07-05T02:30:33;6.20;;;4.47;;
39982;SDS011;25670;44.782;10.356;2022-07-05T02:32:59;8.10;;;4.82;;
39982;SDS011;25670;44.782;10.356;2022-07-05T02:35:27;5.50;;;4.72;;
39982;SDS011;25670;44.782;10.356;2022-07-05T02:37:54;5.72;;;4.35;;
39982;SDS011;25670;44.782;10.356;2022-07-05T02:40:20;8.27;;;4.70;;
39982;SDS011;25670;44.782;10.356;2022-07-05T02:42:50;6.38;;;4.25;;
39982;SDS011;25670;44.782;10.356;2022-07-05T02:45:18;7.70;;;4.90;;
39982;SDS011;25670;44.782;10.356;2022-07-05T02:47:48;4.40;;;4.10;;
39982;SDS011;25670;44.782;10.356;2022-07-05T02:50:16;5.30;;;4.25;;
39982;SDS011;25670;44.782;10.356;2022-07-05T02:52:47;12.57;;;4.60;;
39982;SDS011;25670;44.782;10.356;2022-07-05T02:55:15;7.25;;;4.80;;
39982;SDS011;25670;44.782;10.356;2022-07-05T02:57:42;4.07;;;3.75;;
39982;SDS011;25670;44.782;10.356;2022-07-05T03:00:11;6.93;;;4.38;;
39982;SDS011;25670;44.782;10.356;2022-07-05T03:02:42;5.93;;;4.65;;
39982;SDS011;25670;44.782;10.356;2022-07-05T03:05:10;9.25;;;4.50;;
39982;SDS011;25670;44.782;10.356;2022-07-05T03:07:39;4.35;;;3.95;;
39982;SDS011;25670;44.782;10.356;2022-07-05T03:10:06;7.50;;;4.82;;
39982;SDS011;25670;44.782;10.356;2022-07-05T03:12:34;4.55;;;4.20;;
39982;SDS011;25670;44.782;10.356;2022-07-05T03:15:01;6.55;;;5.13;;
39982;SDS011;25670;44.782;10.356;2022-07-05T03:17:30;9.57;;;4.47;;
39982;SDS011;25670;44.782;10.356;2022-07-05T03:19:58;4.00;;;3.67;;
39982;SDS011;25670;44.782;10.356;2022-07-05T03:22:26;4.57;;;4.18;;
39982;SDS011;25670;44.782;10.356;2022-07-05T03:24:55;5.13;;;3.75;;
39982;SDS011;25670;44.782;10.356;2022-07-05T03:27:22;4.53;;;4.03;;
39982;SDS011;25670;44.782;10.356;2022-07-05T03:29:52;4.88;;;4.15;;
39982;SDS011;25670;44.782;10.356;2022-07-05T03:32:19;4.90;;;4.47;;
39982;SDS011;25670;44.782;10.356;2022-07-05T03:34:47;11.13;;;4.57;;
39982;SDS011;25670;44.782;10.356;2022-07-05T03:37:15;5.53;;;5.03;;
39982;SDS011;25670;44.782;10.356;2022-07-05T03:39:41;5.68;;;5.05;;
39982;SDS011;25670;44.782;10.356;2022-07-05T03:42:09;5.43;;;4.93;;
39982;SDS011;25670;44.782;10.356;2022-07-05T03:44:35;5.10;;;4.60;;
39982;SDS011;25670;44.782;10.356;2022-07-05T03:47:04;5.22;;;4.82;;
39982;SDS011;25670;44.782;10.356;2022-07-05T03:49:32;8.77;;;5.10;;
39982;SDS011;25670;44.782;10.356;2022-07-05T03:51:58;8.52;;;5.35;;
39982;SDS011;25670;44.782;10.356;2022-07-05T03:54:25;6.07;;;4.53;;
39982;SDS011;25670;44.782;10.356;2022-07-05T03:56:52;5.57;;;4.55;;
39982;SDS011;25670;44.782;10.356;2022-07-05T03:59:19;5.78;;;4.43;;
39982;SDS011;25670;44.782;10.356;2022-07-05T04:01:47;5.30;;;4.80;;
39982;SDS011;25670;44.782;10.356;2022-07-05T04:04:14;4.78;;;4.18;;
39982;SDS011;25670;44.782;10.356;2022-07-05T04:06:41;4.53;;;4.07;;
39982;SDS011;25670;44.782;10.356;2022-07-05T04:18:32;7.22;;;4.40;;
39982;SDS011;25670;44.782;10.356;2022-07-05T04:20:59;6.38;;;4.25;;
39982;SDS011;25670;44.782;10.356;2022-07-05T04:23:25;6.55;;;4.78;;
39982;SDS011;25670;44.782;10.356;2022-07-05T04:25:52;4.93;;;3.97;;
39982;SDS011;25670;44.782;10.356;2022-07-05T04:28:27;3.90;;;3.05;;
39982;SDS011;25670;44.782;10.356;2022-07-05T04:30:58;6.87;;;2.87;;
39982;SDS011;25670;44.782;10.356;2022-07-05T04:33:27;11.05;;;4.00;;
39982;SDS011;25670;44.782;10.356;2022-07-05T04:35:56;9.27;;;8.32;;
39982;SDS011;25670;44.782;10.356;2022-07-05T04:38:22;11.90;;;6.00;;
39982;SDS011;25670;44.782;10.356;2022-07-05T04:40:50;3.97;;;3.67;;
39982;SDS011;25670;44.782;10.356;2022-07-05T04:43:17;11.43;;;3.50;;
39982;SDS011;25670;44.782;10.356;2022-07-05T04:45:44;4.43;;;4.05;;
39982;SDS011;25670;44.782;10.356;2022-07-05T04:48:11;9.07;;;4.22;;
39982;SDS011;25670;44.782;10.356;2022-07-05T04:50:40;3.80;;;3.60;;
39982;SDS011;25670;44.782;10.356;2022-07-05T04:53:06;5.50;;;2.65;;
39982;SDS011;25670;44.782;10.356;2022-07-05T04:55:33;4.13;;;2.20;;
39982;SDS011;25670;44.782;10.356;2022-07-05T04:57:59;5.07;;;2.00;;
39982;SDS011;25670;44.782;10.356;2022-07-05T05:00:26;2.17;;;1.83;;
39982;SDS011;25670;44.782;10.356;2022-07-05T05:02:52;2.35;;;1.88;;
39982;SDS011;25670;44.782;10.356;2022-07-05T05:05:19;9.85;;;2.35;;
39982;SDS011;25670;44.782;10.356;2022-07-05T05:07:46;2.90;;;2.70;;
39982;SDS011;25670;44.782;10.356;2022-07-05T05:10:12;3.13;;;2.60;;
39982;SDS011;25670;44.782;10.356;2022-07-05T05:12:38;4.22;;;2.70;;
39982;SDS011;25670;44.782;10.356;2022-07-05T05:15:05;3.08;;;2.88;;
39982;SDS011;25670;44.782;10.356;2022-07-05T05:17:39;4.75;;;3.08;;
39982;SDS011;25670;44.782;10.356;2022-07-05T05:22:39;5.20;;;2.72;;
39982;SDS011;25670;44.782;10.356;2022-07-05T05:25:06;4.10;;;2.50;;
39982;SDS011;25670;44.782;10.356;2022-07-05T05:27:32;6.07;;;1.80;;
39982;SDS011;25670;44.782;10.356;2022-07-05T05:29:59;2.70;;;1.90;;
39982;SDS011;25670;44.782;10.356;2022-07-05T05:32:25;2.78;;;1.75;;
39982;SDS011;25670;44.782;10.356;2022-07-05T05:34:51;2.60;;;1.70;;
39982;SDS011;25670;44.782;10.356;2022-07-05T05:37:18;2.35;;;1.40;;
39982;SDS011;25670;44.782;10.356;2022-07-05T05:39:44;6.32;;;1.48;;
39982;SDS011;25670;44.782;10.356;2022-07-05T05:42:10;4.47;;;1.42;;
39982;SDS011;25670;44.782;10.356;2022-07-05T05:44:36;4.00;;;1.10;;
39982;SDS011;25670;44.782;10.356;2022-07-05T05:47:04;10.15;;;1.75;;
39982;SDS011;25670;44.782;10.356;2022-07-05T05:49:30;3.72;;;1.15;;
39982;SDS011;25670;44.782;10.356;2022-07-05T05:51:56;3.90;;;1.48;;
39982;SDS011;25670;44.782;10.356;2022-07-05T05:54:23;1.90;;;1.50;;
39982;SDS011;25670;44.782;10.356;2022-07-05T05:56:49;6.38;;;1.60;;
39982;SDS011;25670;44.782;10.356;2022-07-05T05:59:16;9.82;;;2.05;;
39982;SDS011;25670;44.782;10.356;2022-07-05T06:01:42;3.88;;;1.90;;
39982;SDS011;25670;44.782;10.356;2022-07-05T06:04:08;3.65;;;1.70;;
39982;SDS011;25670;44.782;10.356;2022-07-05T06:06:34;5.55;;;1.80;;
39982;SDS011;25670;44.782;10.356;2022-07-05T06:09:01;3.20;;;2.00;;
39982;SDS011;25670;44.782;10.356;2022-07-05T06:11:27;2.75;;;1.70;;
39982;SDS011;25670;44.782;10.356;2022-07-05T06:13:53;4.35;;;1.85;;
39982;SDS011;25670;44.782;10.356;2022-07-05T06:16:20;3.65;;;1.45;;
39982;SDS011;25670;44.782;10.356;2022-07-05T06:18:46;3.67;;;1.80;;
39982;SDS011;25670;44.782;10.356;2022-07-05T06:21:12;2.72;;;1.20;;
39982;SDS011;25670;44.782;10.356;2022-07-05T06:23:39;4.82;;;1.80;;
39982;SDS011;25670;44.782;10.356;2022-07-05T06:26:05;2.75;;;2.00;;
39982;SDS011;25670;44.782;10.356;2022-07-05T06:28:32;2.55;;;1.77;;
39982;SDS011;25670;44.782;10.356;2022-07-05T06:30:58;2.92;;;2.20;;
39982;SDS011;25670;44.782;10.356;2022-07-05T06:33:24;4.88;;;2.05;;
39982;SDS011;25670;44.782;10.356;2022-07-05T06:35:51;5.10;;;1.58;;
39982;SDS011;25670;44.782;10.356;2022-07-05T06:38:17;6.43;;;1.92;;
39982;SDS011;25670;44.782;10.356;2022-07-05T06:40:43;2.20;;;1.25;;
39982;SDS011;25670;44.782;10.356;2022-07-05T06:43:11;3.25;;;1.92;;
39982;SDS011;25670;44.782;10.356;2022-07-05T06:46:02;2.90;;;1.60;;
39982;SDS011;25670;44.782;10.356;2022-07-05T06:48:28;10.57;;;2.65;;
39982;SDS011;25670;44.782;10.356;2022-07-05T06:50:55;3.63;;;1.70;;
39982;SDS011;25670;44.782;10.356;2022-07-05T06:53:21;6.07;;;1.92;;
39982;SDS011;25670;44.782;10.356;2022-07-05T06:55:48;8.32;;;2.67;;
39982;SDS011;25670;44.782;10.356;2022-07-05T06:58:14;2.47;;;2.28;;
39982;SDS011;25670;44.782;10.356;2022-07-05T07:00:40;3.92;;;2.83;;
39982;SDS011;25670;44.782;10.356;2022-07-05T07:03:07;8.13;;;2.92;;
39982;SDS011;25670;44.782;10.356;2022-07-05T07:05:34;11.90;;;3.30;;
39982;SDS011;25670;44.782;10.356;2022-07-05T07:08:01;5.05;;;3.25;;
39982;SDS011;25670;44.782;10.356;2022-07-05T07:10:46;7.07;;;3.25;;
39982;SDS011;25670;44.782;10.356;2022-07-05T07:13:12;8.43;;;3.38;;
39982;SDS011;25670;44.782;10.356;2022-07-05T07:15:39;7.70;;;3.13;;
39982;SDS011;25670;44.782;10.356;2022-07-05T07:18:06;3.15;;;2.65;;
39982;SDS011;25670;44.782;10.356;2022-07-05T07:20:32;5.22;;;3.30;;
39982;SDS011;25670;44.782;10.356;2022-07-05T07:22:58;5.70;;;2.97;;
39982;SDS011;25670;44.782;10.356;2022-07-05T07:25:25;4.25;;;2.78;;
39982;SDS011;25670;44.782;10.356;2022-07-05T07:27:53;2.78;;;2.55;;
39982;SDS011;25670;44.782;10.356;2022-07-05T07:30:21;3.70;;;3.05;;
39982;SDS011;25670;44.782;10.356;2022-07-05T07:32:55;2.60;;;2.40;;
39982;SDS011;25670;44.782;10.356;2022-07-05T07:35:21;6.40;;;3.40;;
39982;SDS011;25670;44.782;10.356;2022-07-05T07:37:48;9.80;;;2.47;;
39982;SDS011;25670;44.782;10.356;2022-07-05T07:40:14;3.25;;;2.50;;
39982;SDS011;25670;44.782;10.356;2022-07-05T07:42:40;3.65;;;2.45;;
39982;SDS011;25670;44.782;10.356;2022-07-05T07:45:08;3.97;;;2.30;;
39982;SDS011;25670;44.782;10.356;2022-07-05T07:47:37;6.40;;;3.05;;
39982;SDS011;25670;44.782;10.356;2022-07-05T07:50:04;2.65;;;2.45;;
39982;SDS011;25670;44.782;10.356;2022-07-05T07:52:31;5.68;;;2.70;;
39982;SDS011;25670;44.782;10.356;2022-07-05T07:55:00;6.28;;;2.50;;
39982;SDS011;25670;44.782;10.356;2022-07-05T07:57:27;3.38;;;2.22;;
39982;SDS011;25670;44.782;10.356;2022-07-05T07:59:53;4.30;;;2.88;;
39982;SDS011;25670;44.782;10.356;2022-07-05T08:02:20;6.50;;;2.78;;
39982;SDS011;25670;44.782;10.356;2022-07-05T08:04:49;4.93;;;2.65;;
39982;SDS011;25670;44.782;10.356;2022-07-05T08:07:16;5.20;;;2.72;;
39982;SDS011;25670;44.782;10.356;2022-07-05T08:09:44;13.98;;;3.85;;
39982;SDS011;25670;44.782;10.356;2022-07-05T08:12:11;5.03;;;2.97;;
39982;SDS011;25670;44.782;10.356;2022-07-05T08:14:37;5.65;;;2.55;;
39982;SDS011;25670;44.782;10.356;2022-07-05T08:17:04;2.55;;;2.35;;
39982;SDS011;25670;44.782;10.356;2022-07-05T08:19:34;15.55;;;3.00;;
39982;SDS011;25670;44.782;10.356;2022-07-05T08:22:19;6.85;;;2.78;;
39982;SDS011;25670;44.782;10.356;2022-07-05T08:24:46;11.32;;;3.22;;
39982;SDS011;25670;44.782;10.356;2022-07-05T08:27:13;4.28;;;3.10;;
39982;SDS011;25670;44.782;10.356;2022-07-05T08:29:40;5.78;;;2.72;;
39982;SDS011;25670;44.782;10.356;2022-07-05T08:32:07;8.50;;;3.20;;
39982;SDS011;25670;44.782;10.356;2022-07-05T08:34:33;3.20;;;2.47;;
39982;SDS011;25670;44.782;10.356;2022-07-05T08:37:00;7.13;;;2.95;;
39982;SDS011;25670;44.782;10.356;2022-07-05T08:39:27;3.10;;;2.47;;
39982;SDS011;25670;44.782;10.356;2022-07-05T08:41:54;8.27;;;2.45;;
39982;SDS011;25670;44.782;10.356;2022-07-05T08:44:22;2.80;;;2.33;;
39982;SDS011;25670;44.782;10.356;2022-07-05T08:46:49;2.53;;;2.17;;
39982;SDS011;25670;44.782;10.356;2022-07-05T08:49:27;9.05;;;2.75;;
39982;SDS011;25670;44.782;10.356;2022-07-05T08:51:56;8.20;;;3.60;;
39982;SDS011;25670;44.782;10.356;2022-07-05T08:54:23;5.15;;;2.97;;
39982;SDS011;25670;44.782;10.356;2022-07-05T08:56:51;4.55;;;3.33;;
39982;SDS011;25670;44.782;10.356;2022-07-05T08:59:20;4.00;;;3.67;;
39982;SDS011;25670;44.782;10.356;2022-07-05T09:01:46;13.05;;;3.30;;
39982;SDS011;25670;44.782;10.356;2022-07-05T09:04:16;4.03;;;2.85;;
39982;SDS011;25670;44.782;10.356;2022-07-05T09:06:44;4.15;;;2.92;;
39982;SDS011;25670;44.782;10.356;2022-07-05T09:09:12;5.18;;;3.63;;
39982;SDS011;25670;44.782;10.356;2022-07-05T09:11:39;4.75;;;2.63;;
39982;SDS011;25670;44.782;10.356;2022-07-05T09:16:50;4.53;;;2.70;;
39982;SDS011;25670;44.782;10.356;2022-07-05T09:19:17;5.25;;;3.08;;
39982;SDS011;25670;44.782;10.356;2022-07-05T09:21:47;3.17;;;2.88;;
39982;SDS011;25670;44.782;10.356;2022-07-05T09:24:28;4.28;;;2.92;;
39982;SDS011;25670;44.782;10.356;2022-07-05T09:27:01;3.92;;;2.65;;
39982;SDS011;25670;44.782;10.356;2022-07-05T09:29:38;3.85;;;2.65;;
39982;SDS011;25670;44.782;10.356;2022-07-05T09:32:07;8.60;;;3.72;;
39982;SDS011;25670;44.782;10.356;2022-07-05T09:34:48;3.63;;;3.33;;
39982;SDS011;25670;44.782;10.356;2022-07-05T09:37:14;3.25;;;3.05;;
39982;SDS011;25670;44.782;10.356;2022-07-05T09:40:00;3.92;;;2.45;;
39982;SDS011;25670;44.782;10.356;2022-07-05T09:42:27;3.30;;;3.10;;
39982;SDS011;25670;44.782;10.356;2022-07-05T09:44:56;5.10;;;3.53;;
39982;SDS011;25670;44.782;10.356;2022-07-05T09:47:29;6.82;;;3.50;;
39982;SDS011;25670;44.782;10.356;2022-07-05T09:49:56;5.22;;;3.22;;
39982;SDS011;25670;44.782;10.356;2022-07-05T09:55:07;4.53;;;3.28;;
39982;SDS011;25670;44.782;10.356;2022-07-05T09:57:36;9.70;;;3.17;;
39982;SDS011;25670;44.782;10.356;2022-07-05T10:00:07;2.58;;;2.30;;
39982;SDS011;25670;44.782;10.356;2022-07-05T10:07:38;2.70;;;2.50;;
39982;SDS011;25670;44.782;10.356;2022-07-05T10:10:10;3.17;;;2.88;;
39982;SDS011;25670;44.782;10.356;2022-07-05T10:12:38;2.55;;;2.35;;
39982;SDS011;25670;44.782;10.356;2022-07-05T10:15:08;2.92;;;2.53;;
39982;SDS011;25670;44.782;10.356;2022-07-05T10:17:40;2.53;;;2.40;;
39982;SDS011;25670;44.782;10.356;2022-07-05T10:20:25;3.00;;;2.70;;
39982;SDS011;25670;44.782;10.356;2022-07-05T10:22:58;3.35;;;3.00;;
39982;SDS011;25670;44.782;10.356;2022-07-05T10:25:28;5.05;;;2.95;;
39982;SDS011;25670;44.782;10.356;2022-07-05T10:27:55;5.28;;;2.70;;
39982;SDS011;25670;44.782;10.356;2022-07-05T10:30:24;4.97;;;2.08;;
39982;SDS011;25670;44.782;10.356;2022-07-05T10:32:51;3.33;;;3.03;;
39982;SDS011;25670;44.782;10.356;2022-07-05T10:35:18;5.60;;;2.50;;
39982;SDS011;25670;44.782;10.356;2022-07-05T10:37:45;3.13;;;2.65;;
39982;SDS011;25670;44.782;10.356;2022-07-05T10:40:12;2.47;;;2.28;;
39982;SDS011;25670;44.782;10.356;2022-07-05T10:42:48;3.22;;;2.90;;
39982;SDS011;25670;44.782;10.356;2022-07-05T10:45:25;3.95;;;3.15;;
39982;SDS011;25670;44.782;10.356;2022-07-05T10:53:17;6.20;;;2.60;;
39982;SDS011;25670;44.782;10.356;2022-07-05T11:03:38;3.92;;;2.00;;
39982;SDS011;25670;44.782;10.356;2022-07-05T11:06:42;5.93;;;1.80;;
39982;SDS011;25670;44.782;10.356;2022-07-05T11:11:36;2.60;;;2.28;;
39982;SDS011;25670;44.782;10.356;2022-07-05T11:16:46;4.28;;;1.98;;
39982;SDS011;25670;44.782;10.356;2022-07-05T11:19:14;2.72;;;1.90;;
39982;SDS011;25670;44.782;10.356;2022-07-05T11:21:59;3.47;;;1.48;;
39982;SDS011;25670;44.782;10.356;2022-07-05T11:24:35;3.25;;;1.92;;
39982;SDS011;25670;44.782;10.356;2022-07-05T11:27:04;1.75;;;1.60;;
39982;SDS011;25670;44.782;10.356;2022-07-05T11:29:42;2.70;;;1.90;;
39982;SDS011;25670;44.782;10.356;2022-07-05T11:32:16;5.03;;;2.28;;
39982;SDS011;25670;44.782;10.356;2022-07-05T11:34:44;6.00;;;1.75;;
39982;SDS011;25670;44.782;10.356;2022-07-05T11:37:21;2.50;;;1.60;;
39982;SDS011;25670;44.782;10.356;2022-07-05T11:42:46;2.00;;;1.80;;
39982;SDS011;25670;44.782;10.356;2022-07-05T11:45:17;2.85;;;2.05;;
39982;SDS011;25670;44.782;10.356;2022-07-05T11:47:43;1.80;;;1.70;;
39982;SDS011;25670;44.782;10.356;2022-07-05T11:50:10;3.03;;;1.63;;
39982;SDS011;25670;44.782;10.356;2022-07-05T11:52:38;2.97;;;1.80;;
39982;SDS011;25670;44.782;10.356;2022-07-05T11:55:06;1.88;;;1.77;;
39982;SDS011;25670;44.782;10.356;2022-07-05T11:57:36;2.42;;;1.85;;
39982;SDS011;25670;44.782;10.356;2022-07-05T12:00:13;2.20;;;1.75;;
39982;SDS011;25670;44.782;10.356;2022-07-05T12:02:58;4.43;;;1.65;;
39982;SDS011;25670;44.782;10.356;2022-07-05T12:05:31;1.92;;;1.83;;
39982;SDS011;25670;44.782;10.356;2022-07-05T12:07:58;3.22;;;1.67;;
39982;SDS011;25670;44.782;10.356;2022-07-05T12:10:24;4.53;;;2.20;;
39982;SDS011;25670;44.782;10.356;2022-07-05T12:13:10;4.70;;;1.80;;
39982;SDS011;25670;44.782;10.356;2022-07-05T12:15:36;1.63;;;1.40;;
39982;SDS011;25670;44.782;10.356;2022-07-05T12:18:04;1.67;;;1.58;;
39982;SDS011;25670;44.782;10.356;2022-07-05T12:20:32;2.45;;;1.33;;
39982;SDS011;25670;44.782;10.356;2022-07-05T12:23:00;1.67;;;1.40;;
39982;SDS011;25670;44.782;10.356;2022-07-05T12:25:27;3.25;;;1.80;;
39982;SDS011;25670;44.782;10.356;2022-07-05T12:27:55;5.10;;;1.45;;
39982;SDS011;25670;44.782;10.356;2022-07-05T12:30:23;1.80;;;1.48;;
39982;SDS011;25670;44.782;10.356;2022-07-05T12:38:04;2.28;;;1.30;;
39982;SDS011;25670;44.782;10.356;2022-07-05T12:40:30;2.20;;;1.47;;
39982;SDS011;25670;44.782;10.356;2022-07-05T12:43:01;2.25;;;1.42;;
39982;SDS011;25670;44.782;10.356;2022-07-05T12:45:31;3.00;;;1.48;;
39982;SDS011;25670;44.782;10.356;2022-07-05T12:47:58;2.35;;;1.80;;
39982;SDS011;25670;44.782;10.356;2022-07-05T12:50:26;2.00;;;1.52;;
39982;SDS011;25670;44.782;10.356;2022-07-05T12:56:01;1.20;;;1.10;;
39982;SDS011;25670;44.782;10.356;2022-07-05T12:58:50;2.97;;;1.48;;
39982;SDS011;25670;44.782;10.356;2022-07-05T13:03:54;3.30;;;2.15;;
39982;SDS011;25670;44.782;10.356;2022-07-05T13:06:38;1.80;;;1.63;;
39982;SDS011;25670;44.782;10.356;2022-07-05T13:09:05;1.92;;;1.33;;
39982;SDS011;25670;44.782;10.356;2022-07-05T13:11:32;1.77;;;1.27;;
39982;SDS011;25670;44.782;10.356;2022-07-05T13:13:58;1.75;;;1.60;;
39982;SDS011;25670;44.782;10.356;2022-07-05T13:16:25;5.35;;;1.63;;
39982;SDS011;25670;44.782;10.356;2022-07-05T13:18:52;1.50;;;1.30;;
39982;SDS011;25670;44.782;10.356;2022-07-05T13:21:20;2.58;;;1.40;;
39982;SDS011;25670;44.782;10.356;2022-07-05T13:23:47;2.40;;;1.48;;
39982;SDS011;25670;44.782;10.356;2022-07-05T13:26:13;4.32;;;2.47;;
39982;SDS011;25670;44.782;10.356;2022-07-05T13:28:59;4.75;;;1.45;;
39982;SDS011;25670;44.782;10.356;2022-07-05T13:31:26;5.65;;;1.98;;
39982;SDS011;25670;44.782;10.356;2022-07-05T13:33:54;1.38;;;1.27;;
39982;SDS011;25670;44.782;10.356;2022-07-05T13:36:20;2.53;;;1.02;;
39982;SDS011;25670;44.782;10.356;2022-07-05T13:38:47;9.95;;;1.58;;
39982;SDS011;25670;44.782;10.356;2022-07-05T13:41:13;1.50;;;1.17;;
39982;SDS011;25670;44.782;10.356;2022-07-05T13:43:40;2.72;;;1.80;;
39982;SDS011;25670;44.782;10.356;2022-07-05T13:46:06;7.07;;;1.58;;
39982;SDS011;25670;44.782;10.356;2022-07-05T13:48:32;2.65;;;1.73;;
39982;SDS011;25670;44.782;10.356;2022-07-05T13:50:59;4.50;;;1.70;;
39982;SDS011;25670;44.782;10.356;2022-07-05T13:53:25;1.35;;;1.15;;
39982;SDS011;25670;44.782;10.356;2022-07-05T13:55:51;1.60;;;1.50;;
39982;SDS011;25670;44.782;10.356;2022-07-05T13:58:18;1.40;;;1.30;;
39982;SDS011;25670;44.782;10.356;2022-07-05T14:00:44;1.80;;;1.70;;
39982;SDS011;25670;44.782;10.356;2022-07-05T14:03:10;1.48;;;1.38;;
39982;SDS011;25670;44.782;10.356;2022-07-05T14:05:37;2.67;;;1.17;;
39982;SDS011;25670;44.782;10.356;2022-07-05T14:08:03;5.97;;;1.30;;
39982;SDS011;25670;44.782;10.356;2022-07-05T14:10:33;6.00;;;1.23;;
39982;SDS011;25670;44.782;10.356;2022-07-05T14:12:59;4.72;;;1.30;;
39982;SDS011;25670;44.782;10.356;2022-07-05T14:15:25;1.80;;;1.27;;
39982;SDS011;25670;44.782;10.356;2022-07-05T14:17:51;1.63;;;1.20;;
39982;SDS011;25670;44.782;10.356;2022-07-05T14:20:18;3.17;;;1.35;;
39982;SDS011;25670;44.782;10.356;2022-07-05T14:22:44;2.95;;;1.63;;
39982;SDS011;25670;44.782;10.356;2022-07-05T14:25:10;3.67;;;1.70;;
39982;SDS011;25670;44.782;10.356;2022-07-05T14:27:36;3.67;;;1.08;;
39982;SDS011;25670;44.782;10.356;2022-07-05T14:30:04;1.83;;;1.40;;
39982;SDS011;25670;44.782;10.356;2022-07-05T14:32:31;5.10;;;1.50;;
39982;SDS011;25670;44.782;10.356;2022-07-05T14:34:57;1.70;;;1.40;;
39982;SDS011;25670;44.782;10.356;2022-07-05T14:37:24;1.40;;;1.30;;
39982;SDS011;25670;44.782;10.356;2022-07-05T14:39:50;2.40;;;1.40;;
39982;SDS011;25670;44.782;10.356;2022-07-05T14:42:16;1.88;;;1.67;;
39982;SDS011;25670;44.782;10.356;2022-07-05T14:44:43;3.80;;;1.50;;
39982;SDS011;25670;44.782;10.356;2022-07-05T14:47:09;2.35;;;1.50;;
39982;SDS011;25670;44.782;10.356;2022-07-05T14:49:36;4.53;;;1.85;;
39982;SDS011;25670;44.782;10.356;2022-07-05T14:52:02;3.92;;;1.63;;
39982;SDS011;25670;44.782;10.356;2022-07-05T14:54:29;3.38;;;1.23;;
39982;SDS011;25670;44.782;10.356;2022-07-05T14:56:55;5.32;;;1.52;;
39982;SDS011;25670;44.782;10.356;2022-07-05T14:59:21;5.97;;;1.65;;
39982;SDS011;25670;44.782;10.356;2022-07-05T15:01:47;1.85;;;1.42;;
39982;SDS011;25670;44.782;10.356;2022-07-05T15:04:14;2.55;;;1.50;;
39982;SDS011;25670;44.782;10.356;2022-07-05T15:06:41;3.95;;;2.08;;
39982;SDS011;25670;44.782;10.356;2022-07-05T15:09:07;2.80;;;1.23;;
39982;SDS011;25670;44.782;10.356;2022-07-05T15:11:33;1.80;;;1.40;;
39982;SDS011;25670;44.782;10.356;2022-07-05T15:14:00;3.80;;;1.70;;
39982;SDS011;25670;44.782;10.356;2022-07-05T15:16:27;2.42;;;1.48;;
39982;SDS011;25670;44.782;10.356;2022-07-05T15:18:54;2.22;;;1.60;;
39982;SDS011;25670;44.782;10.356;2022-07-05T15:21:20;1.67;;;1.52;;
39982;SDS011;25670;44.782;10.356;2022-07-05T15:23:46;2.85;;;2.20;;
39982;SDS011;25670;44.782;10.356;2022-07-05T15:26:12;2.03;;;1.70;;
39982;SDS011;25670;44.782;10.356;2022-07-05T15:28:39;1.92;;;1.73;;
39982;SDS011;25670;44.782;10.356;2022-07-05T15:31:05;2.38;;;1.27;;
39982;SDS011;25670;44.782;10.356;2022-07-05T15:33:31;3.63;;;1.45;;